sensor_id;sensor_type;location;lat;lon;timestamp;temperature;humidity
31975;DHT22;18500;43.618;1.474;2023-10-08T07:51:27;13.50;1.00
31975;DHT22;18500;43.618;1.474;2023-10-08T07:53:54;13.60;1.00
31975;DHT22;18500;43.618;1.474;2023-10-08T07:56:25;13.80;1.00
31975;DHT22;18500;43.618;1.474;2023-10-08T07:58:52;14.00;1.00
31975;DHT22;18500;43.618;1.474;2023-10-08T08:01:17;14.10;1.00
31975;DHT22;18500;43.618;1.474;2023-10-08T08:03:45;14.10;1.00
31975;DHT22;18500;43.618;1.474;2023-10-08T08:06:14;14.40;1.00
31975;DHT22;18500;43.618;1.474;2023-10-08T08:08:41;14.50;1.00
31975;DHT22;18500;43.618;1.474;2023-10-08T08:11:08;14.80;1.00
31975;DHT22;18500;43.618;1.474;2023-10-08T08:13:43;14.90;1.00
31975;DHT22;18500;43.618;1.474;2023-10-08T08:16:11;15.10;1.00
31975;DHT22;18500;43.618;1.474;2023-10-08T08:18:48;15.20;1.00
31975;DHT22;18500;43.618;1.474;2023-10-08T08:21:15;15.50;1.00
31975;DHT22;18500;43.618;1.474;2023-10-08T08:23:42;15.50;1.00
31975;DHT22;18500;43.618;1.474;2023-10-08T08:26:20;15.80;1.00
31975;DHT22;18500;43.618;1.474;2023-10-08T08:29:02;16.00;1.00
31975;DHT22;18500;43.618;1.474;2023-10-08T08:31:28;16.20;1.00
31975;DHT22;18500;43.618;1.474;2023-10-08T08:33:58;16.30;1.00
31975;DHT22;18500;43.618;1.474;2023-10-08T08:36:35;16.40;1.00
31975;DHT22;18500;43.618;1.474;2023-10-08T08:39:05;16.40;1.00
31975;DHT22;18500;43.618;1.474;2023-10-08T08:41:39;16.50;1.00
31975;DHT22;18500;43.618;1.474;2023-10-08T08:44:05;16.60;1.00
31975;DHT22;18500;43.618;1.474;2023-10-08T08:46:37;16.60;1.00
31975;DHT22;18500;43.618;1.474;2023-10-08T08:49:05;16.60;1.00
31975;DHT22;18500;43.618;1.474;2023-10-08T08:51:37;16.70;1.00
31975;DHT22;18500;43.618;1.474;2023-10-08T08:54:03;16.70;1.00
31975;DHT22;18500;43.618;1.474;2023-10-08T08:56:39;16.70;1.00
31975;DHT22;18500;43.618;1.474;2023-10-08T08:59:06;16.60;1.00
31975;DHT22;18500;43.618;1.474;2023-10-08T09:01:32;16.60;1.00
31975;DHT22;18500;43.618;1.474;2023-10-08T09:04:02;16.70;1.00
31975;DHT22;18500;43.618;1.474;2023-10-08T09:06:34;16.70;1.00
31975;DHT22;18500;43.618;1.474;2023-10-08T09:09:01;16.90;1.00
31975;DHT22;18500;43.618;1.474;2023-10-08T09:11:50;17.20;1.00
31975;DHT22;18500;43.618;1.474;2023-10-08T09:14:24;17.30;1.00
31975;DHT22;18500;43.618;1.474;2023-10-08T09:16:55;17.60;1.00
31975;DHT22;18500;43.618;1.474;2023-10-08T09:19:21;17.90;1.00
31975;DHT22;18500;43.618;1.474;2023-10-08T09:22:10;18.00;1.00
31975;DHT22;18500;43.618;1.474;2023-10-08T09:24:41;18.20;1.00
31975;DHT22;18500;43.618;1.474;2023-10-08T09:27:08;18.40;1.00
31975;DHT22;18500;43.618;1.474;2023-10-08T09:29:37;18.60;1.00
31975;DHT22;18500;43.618;1.474;2023-10-08T09:32:06;19.10;1.00
31975;DHT22;18500;43.618;1.474;2023-10-08T09:34:33;19.10;1.00
31975;DHT22;18500;43.618;1.474;2023-10-08T09:37:00;19.00;1.00
31975;DHT22;18500;43.618;1.474;2023-10-08T09:39:27;19.20;1.00
31975;DHT22;18500;43.618;1.474;2023-10-08T09:41:55;19.40;1.00
31975;DHT22;18500;43.618;1.474;2023-10-08T09:44:22;19.60;1.00
31975;DHT22;18500;43.618;1.474;2023-10-08T09:47:05;19.90;1.00
31975;DHT22;18500;43.618;1.474;2023-10-08T09:49:33;20.80;1.00
31975;DHT22;18500;43.618;1.474;2023-10-08T09:52:03;21.10;1.00
31975;DHT22;18500;43.618;1.474;2023-10-08T09:54:44;21.10;1.00
31975;DHT22;18500;43.618;1.474;2023-10-08T09:57:11;21.30;1.00
31975;DHT22;18500;43.618;1.474;2023-10-08T09:59:36;21.50;1.00
31975;DHT22;18500;43.618;1.474;2023-10-08T10:02:03;21.50;1.00
31975;DHT22;18500;43.618;1.474;2023-10-08T10:04:31;21.70;1.00
31975;DHT22;18500;43.618;1.474;2023-10-08T10:07:09;21.90;1.00
31975;DHT22;18500;43.618;1.474;2023-10-08T10:09:38;22.10;1.00
31975;DHT22;18500;43.618;1.474;2023-10-08T10:12:05;22.30;1.00
31975;DHT22;18500;43.618;1.474;2023-10-08T10:14:42;22.50;1.00
31975;DHT22;18500;43.618;1.474;2023-10-08T10:17:15;22.60;1.00
31975;DHT22;18500;43.618;1.474;2023-10-08T10:19:50;22.70;1.00
31975;DHT22;18500;43.618;1.474;2023-10-08T10:22:30;22.80;1.00
31975;DHT22;18500;43.618;1.474;2023-10-08T10:24:58;22.90;1.00
31975;DHT22;18500;43.618;1.474;2023-10-08T10:27:25;23.10;1.00
31975;DHT22;18500;43.618;1.474;2023-10-08T10:30:02;23.00;1.00
31975;DHT22;18500;43.618;1.474;2023-10-08T10:32:35;23.10;1.00
31975;DHT22;18500;43.618;1.474;2023-10-08T10:35:01;23.40;99.90
31975;DHT22;18500;43.618;1.474;2023-10-08T10:37:29;23.70;99.90
31975;DHT22;18500;43.618;1.474;2023-10-08T10:40:06;23.80;99.90
31975;DHT22;18500;43.618;1.474;2023-10-08T10:42:36;23.90;99.90
31975;DHT22;18500;43.618;1.474;2023-10-08T10:45:15;23.80;99.90
31975;DHT22;18500;43.618;1.474;2023-10-08T10:48:00;24.00;99.90
31975;DHT22;18500;43.618;1.474;2023-10-08T10:50:41;24.10;99.90
31975;DHT22;18500;43.618;1.474;2023-10-08T10:53:25;24.00;99.90
31975;DHT22;18500;43.618;1.474;2023-10-08T10:55:53;24.40;99.90
31975;DHT22;18500;43.618;1.474;2023-10-08T10:58:35;24.60;99.90
31975;DHT22;18500;43.618;1.474;2023-10-08T11:01:05;24.70;99.90
31975;DHT22;18500;43.618;1.474;2023-10-08T11:03:33;24.70;1.00
31975;DHT22;18500;43.618;1.474;2023-10-08T11:06:01;24.80;99.90
31975;DHT22;18500;43.618;1.474;2023-10-08T11:08:32;24.90;99.90
31975;DHT22;18500;43.618;1.474;2023-10-08T11:11:01;24.90;99.90
31975;DHT22;18500;43.618;1.474;2023-10-08T11:13:33;25.00;99.90
31975;DHT22;18500;43.618;1.474;2023-10-08T11:16:06;25.20;99.90
31975;DHT22;18500;43.618;1.474;2023-10-08T11:18:33;25.20;99.90
31975;DHT22;18500;43.618;1.474;2023-10-08T11:21:09;25.30;99.90
31975;DHT22;18500;43.618;1.474;2023-10-08T11:23:49;25.20;99.90
31975;DHT22;18500;43.618;1.474;2023-10-08T11:26:40;25.40;99.90
31975;DHT22;18500;43.618;1.474;2023-10-08T11:29:20;25.30;99.90
31975;DHT22;18500;43.618;1.474;2023-10-08T11:31:51;25.50;99.90
31975;DHT22;18500;43.618;1.474;2023-10-08T11:34:17;25.70;99.90
31975;DHT22;18500;43.618;1.474;2023-10-08T11:36:52;25.80;99.90
31975;DHT22;18500;43.618;1.474;2023-10-08T11:39:21;25.80;99.90
31975;DHT22;18500;43.618;1.474;2023-10-08T11:42:00;26.00;99.90
31975;DHT22;18500;43.618;1.474;2023-10-08T11:44:32;26.00;99.90
31975;DHT22;18500;43.618;1.474;2023-10-08T11:47:02;26.00;99.90
31975;DHT22;18500;43.618;1.474;2023-10-08T11:49:37;25.80;99.90
31975;DHT22;18500;43.618;1.474;2023-10-08T11:52:04;25.90;99.90
31975;DHT22;18500;43.618;1.474;2023-10-08T11:54:30;26.00;99.90
31975;DHT22;18500;43.618;1.474;2023-10-08T11:57:00;26.30;99.90
31975;DHT22;18500;43.618;1.474;2023-10-08T11:59:27;26.30;99.90
31975;DHT22;18500;43.618;1.474;2023-10-08T12:01:55;26.50;99.90
31975;DHT22;18500;43.618;1.474;2023-10-08T12:04:21;26.50;99.90
31975;DHT22;18500;43.618;1.474;2023-10-08T12:06:48;26.50;99.90
31975;DHT22;18500;43.618;1.474;2023-10-08T12:09:17;26.60;99.90
31975;DHT22;18500;43.618;1.474;2023-10-08T12:11:49;26.70;99.90
31975;DHT22;18500;43.618;1.474;2023-10-08T12:14:16;26.80;99.90
31975;DHT22;18500;43.618;1.474;2023-10-08T12:16:42;28.30;99.90
31975;DHT22;18500;43.618;1.474;2023-10-08T12:19:11;30.90;99.90
31975;DHT22;18500;43.618;1.474;2023-10-08T12:21:43;33.90;99.90
31975;DHT22;18500;43.618;1.474;2023-10-08T12:24:12;36.50;99.90
31975;DHT22;18500;43.618;1.474;2023-10-08T12:26:41;38.10;99.90
31975;DHT22;18500;43.618;1.474;2023-10-08T12:29:13;37.80;99.90
31975;DHT22;18500;43.618;1.474;2023-10-08T12:31:44;37.80;99.90
31975;DHT22;18500;43.618;1.474;2023-10-08T12:34:16;39.20;99.90
31975;DHT22;18500;43.618;1.474;2023-10-08T12:36:42;39.10;99.90
31975;DHT22;18500;43.618;1.474;2023-10-08T12:39:08;39.00;99.90
31975;DHT22;18500;43.618;1.474;2023-10-08T12:41:44;39.30;99.90
31975;DHT22;18500;43.618;1.474;2023-10-08T12:44:11;39.90;99.90
31975;DHT22;18500;43.618;1.474;2023-10-08T12:46:37;40.20;99.90
31975;DHT22;18500;43.618;1.474;2023-10-08T12:49:03;40.60;99.90
31975;DHT22;18500;43.618;1.474;2023-10-08T12:51:29;41.20;99.90
31975;DHT22;18500;43.618;1.474;2023-10-08T12:53:59;40.80;99.90
31975;DHT22;18500;43.618;1.474;2023-10-08T12:56:32;40.90;99.90
31975;DHT22;18500;43.618;1.474;2023-10-08T12:59:04;38.80;99.90
31975;DHT22;18500;43.618;1.474;2023-10-08T13:01:32;36.60;99.90
31975;DHT22;18500;43.618;1.474;2023-10-08T13:03:58;36.70;99.90
31975;DHT22;18500;43.618;1.474;2023-10-08T13:06:33;36.40;99.90
31975;DHT22;18500;43.618;1.474;2023-10-08T13:08:59;35.20;99.90
31975;DHT22;18500;43.618;1.474;2023-10-08T13:11:27;33.50;99.90
31975;DHT22;18500;43.618;1.474;2023-10-08T13:13:56;31.60;99.90
31975;DHT22;18500;43.618;1.474;2023-10-08T13:16:23;30.90;99.90
31975;DHT22;18500;43.618;1.474;2023-10-08T13:18:51;30.60;99.90
31975;DHT22;18500;43.618;1.474;2023-10-08T13:21:17;30.50;99.90
31975;DHT22;18500;43.618;1.474;2023-10-08T13:23:47;30.30;99.90
31975;DHT22;18500;43.618;1.474;2023-10-08T13:26:14;29.90;99.90
31975;DHT22;18500;43.618;1.474;2023-10-08T13:28:43;29.80;99.90
31975;DHT22;18500;43.618;1.474;2023-10-08T13:31:10;29.70;99.90
31975;DHT22;18500;43.618;1.474;2023-10-08T13:33:39;29.70;99.90
31975;DHT22;18500;43.618;1.474;2023-10-08T13:36:09;29.60;99.90
31975;DHT22;18500;43.618;1.474;2023-10-08T13:38:36;29.70;99.90
31975;DHT22;18500;43.618;1.474;2023-10-08T13:41:05;29.60;99.90
31975;DHT22;18500;43.618;1.474;2023-10-08T13:43:45;29.70;99.90
31975;DHT22;18500;43.618;1.474;2023-10-08T13:46:12;29.70;99.90
31975;DHT22;18500;43.618;1.474;2023-10-08T13:48:39;29.60;99.90
31975;DHT22;18500;43.618;1.474;2023-10-08T13:51:06;29.40;99.90
31975;DHT22;18500;43.618;1.474;2023-10-08T13:53:39;29.40;99.90
31975;DHT22;18500;43.618;1.474;2023-10-08T13:56:05;29.40;99.90
31975;DHT22;18500;43.618;1.474;2023-10-08T13:58:31;29.40;99.90
31975;DHT22;18500;43.618;1.474;2023-10-08T14:01:01;29.40;99.90
31975;DHT22;18500;43.618;1.474;2023-10-08T14:03:30;29.30;99.90
31975;DHT22;18500;43.618;1.474;2023-10-08T14:06:00;29.40;99.90
31975;DHT22;18500;43.618;1.474;2023-10-08T14:08:30;29.30;99.90
31975;DHT22;18500;43.618;1.474;2023-10-08T14:10:57;29.30;99.90
31975;DHT22;18500;43.618;1.474;2023-10-08T14:13:31;29.10;99.90
31975;DHT22;18500;43.618;1.474;2023-10-08T14:16:04;29.30;99.90
31975;DHT22;18500;43.618;1.474;2023-10-08T14:18:34;29.30;99.90
31975;DHT22;18500;43.618;1.474;2023-10-08T14:21:09;29.10;99.90
31975;DHT22;18500;43.618;1.474;2023-10-08T14:23:38;29.00;99.90
31975;DHT22;18500;43.618;1.474;2023-10-08T14:26:09;28.90;99.90
31975;DHT22;18500;43.618;1.474;2023-10-08T14:28:36;28.80;99.90
31975;DHT22;18500;43.618;1.474;2023-10-08T14:31:16;28.70;99.90
31975;DHT22;18500;43.618;1.474;2023-10-08T14:33:42;28.70;99.90
31975;DHT22;18500;43.618;1.474;2023-10-08T14:36:22;28.70;99.90
31975;DHT22;18500;43.618;1.474;2023-10-08T14:39:06;28.70;99.90
31975;DHT22;18500;43.618;1.474;2023-10-08T14:41:50;28.60;99.90
31975;DHT22;18500;43.618;1.474;2023-10-08T14:44:35;28.50;99.90
31975;DHT22;18500;43.618;1.474;2023-10-08T14:47:00;28.40;99.90
31975;DHT22;18500;43.618;1.474;2023-10-08T14:49:26;28.40;99.90
31975;DHT22;18500;43.618;1.474;2023-10-08T14:51:52;28.20;99.90
31975;DHT22;18500;43.618;1.474;2023-10-08T14:54:20;28.30;99.90
31975;DHT22;18500;43.618;1.474;2023-10-08T14:56:46;28.50;99.90
31975;DHT22;18500;43.618;1.474;2023-10-08T14:59:12;28.50;99.90
31975;DHT22;18500;43.618;1.474;2023-10-08T15:01:38;28.50;99.90
31975;DHT22;18500;43.618;1.474;2023-10-08T15:04:04;28.50;99.90
31975;DHT22;18500;43.618;1.474;2023-10-08T15:06:31;28.90;99.90
31975;DHT22;18500;43.618;1.474;2023-10-08T15:08:57;29.00;99.90
31975;DHT22;18500;43.618;1.474;2023-10-08T15:11:23;28.80;99.90
31975;DHT22;18500;43.618;1.474;2023-10-08T15:13:51;28.80;99.90
31975;DHT22;18500;43.618;1.474;2023-10-08T15:16:20;28.50;99.90
31975;DHT22;18500;43.618;1.474;2023-10-08T15:18:50;28.40;99.90
31975;DHT22;18500;43.618;1.474;2023-10-08T15:21:17;28.30;99.90
31975;DHT22;18500;43.618;1.474;2023-10-08T15:23:43;28.10;99.90
31975;DHT22;18500;43.618;1.474;2023-10-08T15:26:10;28.00;99.90
31975;DHT22;18500;43.618;1.474;2023-10-08T15:28:38;27.90;99.90
31975;DHT22;18500;43.618;1.474;2023-10-08T15:31:04;27.90;99.90
31975;DHT22;18500;43.618;1.474;2023-10-08T15:33:30;27.90;99.90
31975;DHT22;18500;43.618;1.474;2023-10-08T15:35:56;27.80;99.90
31975;DHT22;18500;43.618;1.474;2023-10-08T15:38:22;27.80;99.90
31975;DHT22;18500;43.618;1.474;2023-10-08T15:40:50;27.60;99.90
31975;DHT22;18500;43.618;1.474;2023-10-08T15:43:16;27.80;99.90
31975;DHT22;18500;43.618;1.474;2023-10-08T15:45:42;27.90;99.90
31975;DHT22;18500;43.618;1.474;2023-10-08T15:48:07;27.70;99.90
31975;DHT22;18500;43.618;1.474;2023-10-08T15:50:34;27.60;99.90
31975;DHT22;18500;43.618;1.474;2023-10-08T15:52:59;27.50;99.90
31975;DHT22;18500;43.618;1.474;2023-10-08T15:55:25;27.50;99.90
31975;DHT22;18500;43.618;1.474;2023-10-08T15:57:52;27.40;99.90
31975;DHT22;18500;43.618;1.474;2023-10-08T16:00:18;27.30;99.90
31975;DHT22;18500;43.618;1.474;2023-10-08T16:02:44;27.20;99.90
31975;DHT22;18500;43.618;1.474;2023-10-08T16:05:11;27.00;99.90
31975;DHT22;18500;43.618;1.474;2023-10-08T16:07:38;26.90;99.90
31975;DHT22;18500;43.618;1.474;2023-10-08T16:10:04;26.90;99.90
31975;DHT22;18500;43.618;1.474;2023-10-08T16:12:30;26.70;99.90
31975;DHT22;18500;43.618;1.474;2023-10-08T16:14:55;26.60;99.90
31975;DHT22;18500;43.618;1.474;2023-10-08T16:17:23;26.70;99.90
31975;DHT22;18500;43.618;1.474;2023-10-08T16:19:49;26.60;99.90
31975;DHT22;18500;43.618;1.474;2023-10-08T16:22:16;26.70;99.90
31975;DHT22;18500;43.618;1.474;2023-10-08T16:24:42;26.60;99.90
31975;DHT22;18500;43.618;1.474;2023-10-08T16:27:07;26.50;99.90
31975;DHT22;18500;43.618;1.474;2023-10-08T16:29:33;26.40;99.90
31975;DHT22;18500;43.618;1.474;2023-10-08T16:32:04;26.30;99.90
31975;DHT22;18500;43.618;1.474;2023-10-08T16:34:32;26.10;99.90
31975;DHT22;18500;43.618;1.474;2023-10-08T16:36:59;25.90;99.90
31975;DHT22;18500;43.618;1.474;2023-10-08T16:39:25;25.80;99.90
31975;DHT22;18500;43.618;1.474;2023-10-08T16:41:52;25.90;99.90
31975;DHT22;18500;43.618;1.474;2023-10-08T16:44:20;25.90;99.90
31975;DHT22;18500;43.618;1.474;2023-10-08T16:46:48;25.70;99.90
31975;DHT22;18500;43.618;1.474;2023-10-08T16:49:13;25.70;99.90
31975;DHT22;18500;43.618;1.474;2023-10-08T16:51:39;25.60;99.90
31975;DHT22;18500;43.618;1.474;2023-10-08T16:54:06;25.70;99.90
31975;DHT22;18500;43.618;1.474;2023-10-08T16:56:39;25.60;99.90
31975;DHT22;18500;43.618;1.474;2023-10-08T16:59:05;25.50;99.90
31975;DHT22;18500;43.618;1.474;2023-10-08T17:01:32;25.40;99.90
31975;DHT22;18500;43.618;1.474;2023-10-08T17:03:58;25.20;99.90
31975;DHT22;18500;43.618;1.474;2023-10-08T17:06:24;25.00;99.90
31975;DHT22;18500;43.618;1.474;2023-10-08T17:08:50;24.80;99.90
31975;DHT22;18500;43.618;1.474;2023-10-08T17:11:15;24.60;99.90
31975;DHT22;18500;43.618;1.474;2023-10-08T17:13:41;24.70;99.90
31975;DHT22;18500;43.618;1.474;2023-10-08T17:16:10;24.70;99.90
31975;DHT22;18500;43.618;1.474;2023-10-08T17:18:38;24.60;99.90
31975;DHT22;18500;43.618;1.474;2023-10-08T17:21:05;24.30;99.90
31975;DHT22;18500;43.618;1.474;2023-10-08T17:23:32;24.10;99.90
31975;DHT22;18500;43.618;1.474;2023-10-08T17:25:57;24.10;99.90
31975;DHT22;18500;43.618;1.474;2023-10-08T17:28:24;23.90;99.90
31975;DHT22;18500;43.618;1.474;2023-10-08T17:30:50;23.80;99.90
31975;DHT22;18500;43.618;1.474;2023-10-08T17:33:16;23.80;99.90
31975;DHT22;18500;43.618;1.474;2023-10-08T17:35:42;23.70;99.90
31975;DHT22;18500;43.618;1.474;2023-10-08T17:38:08;23.50;99.90
31975;DHT22;18500;43.618;1.474;2023-10-08T17:40:37;23.40;99.90
31975;DHT22;18500;43.618;1.474;2023-10-08T17:43:06;23.30;99.90
31975;DHT22;18500;43.618;1.474;2023-10-08T17:45:36;23.00;99.90
31975;DHT22;18500;43.618;1.474;2023-10-08T17:48:06;22.70;99.90
31975;DHT22;18500;43.618;1.474;2023-10-08T17:50:35;22.50;99.90
31975;DHT22;18500;43.618;1.474;2023-10-08T17:53:04;22.10;99.90
31975;DHT22;18500;43.618;1.474;2023-10-08T17:55:31;22.00;99.90
31975;DHT22;18500;43.618;1.474;2023-10-08T17:57:59;21.80;99.90
31975;DHT22;18500;43.618;1.474;2023-10-08T18:00:27;21.80;99.90
31975;DHT22;18500;43.618;1.474;2023-10-08T18:02:56;21.70;99.90
31975;DHT22;18500;43.618;1.474;2023-10-08T18:05:22;21.90;99.90
31975;DHT22;18500;43.618;1.474;2023-10-08T18:07:52;22.10;99.90
31975;DHT22;18500;43.618;1.474;2023-10-08T18:10:20;22.30;99.90
31975;DHT22;18500;43.618;1.474;2023-10-08T18:12:49;22.50;99.90
31975;DHT22;18500;43.618;1.474;2023-10-08T18:15:17;22.40;99.90
31975;DHT22;18500;43.618;1.474;2023-10-08T18:17:49;22.40;99.90
31975;DHT22;18500;43.618;1.474;2023-10-08T18:20:17;22.20;99.90
31975;DHT22;18500;43.618;1.474;2023-10-08T18:22:49;22.20;99.90
31975;DHT22;18500;43.618;1.474;2023-10-08T18:25:19;22.00;99.90
31975;DHT22;18500;43.618;1.474;2023-10-08T18:27:45;22.00;99.90
31975;DHT22;18500;43.618;1.474;2023-10-08T18:30:11;21.90;99.90
31975;DHT22;18500;43.618;1.474;2023-10-08T18:32:38;21.80;99.90
31975;DHT22;18500;43.618;1.474;2023-10-08T18:35:04;21.80;99.90
31975;DHT22;18500;43.618;1.474;2023-10-08T18:37:36;21.70;99.90
31975;DHT22;18500;43.618;1.474;2023-10-08T18:40:02;21.60;99.90
31975;DHT22;18500;43.618;1.474;2023-10-08T18:42:41;21.50;99.90
31975;DHT22;18500;43.618;1.474;2023-10-08T18:45:09;21.40;99.90
31975;DHT22;18500;43.618;1.474;2023-10-08T18:47:40;21.30;99.90
31975;DHT22;18500;43.618;1.474;2023-10-08T18:50:06;21.40;99.90
31975;DHT22;18500;43.618;1.474;2023-10-08T18:52:34;21.30;99.90
31975;DHT22;18500;43.618;1.474;2023-10-08T18:55:00;21.20;99.90
31975;DHT22;18500;43.618;1.474;2023-10-08T18:57:26;21.10;99.90
31975;DHT22;18500;43.618;1.474;2023-10-08T18:59:52;21.10;99.90
31975;DHT22;18500;43.618;1.474;2023-10-08T19:02:18;21.00;99.90
31975;DHT22;18500;43.618;1.474;2023-10-08T19:04:43;20.90;99.90
31975;DHT22;18500;43.618;1.474;2023-10-08T19:07:10;20.80;99.90
31975;DHT22;18500;43.618;1.474;2023-10-08T19:09:36;20.80;99.90
31975;DHT22;18500;43.618;1.474;2023-10-08T19:12:02;20.70;99.90
31975;DHT22;18500;43.618;1.474;2023-10-08T19:14:34;20.60;99.90
31975;DHT22;18500;43.618;1.474;2023-10-08T19:16:59;20.50;99.90
31975;DHT22;18500;43.618;1.474;2023-10-08T19:19:25;20.50;99.90
31975;DHT22;18500;43.618;1.474;2023-10-08T19:21:51;20.50;99.90
31975;DHT22;18500;43.618;1.474;2023-10-08T19:24:20;20.40;99.90
31975;DHT22;18500;43.618;1.474;2023-10-08T19:26:45;20.50;99.90
31975;DHT22;18500;43.618;1.474;2023-10-08T19:29:11;20.40;99.90
31975;DHT22;18500;43.618;1.474;2023-10-08T19:31:38;20.40;99.90
31975;DHT22;18500;43.618;1.474;2023-10-08T19:34:04;20.30;99.90
31975;DHT22;18500;43.618;1.474;2023-10-08T19:36:30;20.20;99.90
31975;DHT22;18500;43.618;1.474;2023-10-08T19:38:56;20.20;99.90
31975;DHT22;18500;43.618;1.474;2023-10-08T19:41:22;20.10;99.90
31975;DHT22;18500;43.618;1.474;2023-10-08T19:43:48;20.00;99.90
31975;DHT22;18500;43.618;1.474;2023-10-08T19:46:17;19.90;99.90
31975;DHT22;18500;43.618;1.474;2023-10-08T19:48:46;19.90;99.90
31975;DHT22;18500;43.618;1.474;2023-10-08T19:51:12;19.80;99.90
31975;DHT22;18500;43.618;1.474;2023-10-08T19:53:41;19.70;99.90
31975;DHT22;18500;43.618;1.474;2023-10-08T19:56:07;19.70;99.90
31975;DHT22;18500;43.618;1.474;2023-10-08T19:58:34;19.60;99.90
31975;DHT22;18500;43.618;1.474;2023-10-08T20:01:03;19.50;99.90
31975;DHT22;18500;43.618;1.474;2023-10-08T20:03:30;19.50;99.90
31975;DHT22;18500;43.618;1.474;2023-10-08T20:05:56;19.50;99.90
31975;DHT22;18500;43.618;1.474;2023-10-08T20:08:22;19.40;99.90
31975;DHT22;18500;43.618;1.474;2023-10-08T20:10:49;19.30;99.90
31975;DHT22;18500;43.618;1.474;2023-10-08T20:13:15;19.30;99.90
31975;DHT22;18500;43.618;1.474;2023-10-08T20:15:42;19.20;99.90
31975;DHT22;18500;43.618;1.474;2023-10-08T20:18:08;19.10;99.90
31975;DHT22;18500;43.618;1.474;2023-10-08T20:20:36;19.10;99.90
31975;DHT22;18500;43.618;1.474;2023-10-08T20:23:03;19.10;99.90
31975;DHT22;18500;43.618;1.474;2023-10-08T20:25:35;19.00;99.90
31975;DHT22;18500;43.618;1.474;2023-10-08T20:28:10;18.90;99.90
31975;DHT22;18500;43.618;1.474;2023-10-08T20:30:40;18.90;99.90
31975;DHT22;18500;43.618;1.474;2023-10-08T20:33:10;18.80;99.90
31975;DHT22;18500;43.618;1.474;2023-10-08T20:35:40;18.70;99.90
31975;DHT22;18500;43.618;1.474;2023-10-08T20:38:06;18.70;99.90
31975;DHT22;18500;43.618;1.474;2023-10-08T20:40:37;18.60;99.90
31975;DHT22;18500;43.618;1.474;2023-10-08T20:43:06;18.60;99.90
31975;DHT22;18500;43.618;1.474;2023-10-08T20:45:32;18.40;99.90
31975;DHT22;18500;43.618;1.474;2023-10-08T20:47:59;18.30;99.90
31975;DHT22;18500;43.618;1.474;2023-10-08T20:50:27;18.20;99.90
31975;DHT22;18500;43.618;1.474;2023-10-08T20:52:54;18.20;99.90
31975;DHT22;18500;43.618;1.474;2023-10-08T20:55:21;18.10;99.90
31975;DHT22;18500;43.618;1.474;2023-10-08T20:57:53;18.00;99.90
31975;DHT22;18500;43.618;1.474;2023-10-08T21:00:21;18.00;99.90
31975;DHT22;18500;43.618;1.474;2023-10-08T21:02:53;17.90;99.90
31975;DHT22;18500;43.618;1.474;2023-10-08T21:05:18;17.90;99.90
31975;DHT22;18500;43.618;1.474;2023-10-08T21:07:45;17.80;99.90
31975;DHT22;18500;43.618;1.474;2023-10-08T21:10:16;17.80;99.90
31975;DHT22;18500;43.618;1.474;2023-10-08T21:12:44;17.70;99.90
31975;DHT22;18500;43.618;1.474;2023-10-08T21:15:11;17.70;99.90
31975;DHT22;18500;43.618;1.474;2023-10-08T21:17:40;17.60;99.90
31975;DHT22;18500;43.618;1.474;2023-10-08T21:20:07;17.60;99.90
31975;DHT22;18500;43.618;1.474;2023-10-08T21:22:41;17.60;99.90
31975;DHT22;18500;43.618;1.474;2023-10-08T21:25:07;17.50;99.90
31975;DHT22;18500;43.618;1.474;2023-10-08T21:27:36;17.40;99.90
31975;DHT22;18500;43.618;1.474;2023-10-08T21:30:06;17.40;99.90
31975;DHT22;18500;43.618;1.474;2023-10-08T21:32:53;17.40;99.90
31975;DHT22;18500;43.618;1.474;2023-10-08T21:35:20;17.40;99.90
31975;DHT22;18500;43.618;1.474;2023-10-08T21:37:49;17.40;99.90
31975;DHT22;18500;43.618;1.474;2023-10-08T21:40:15;17.40;1.00
